Time;durP1;ratioP1;P1;durP2;ratioP2;P2;SDS_P1;SDS_P2;PMS_P1;PMS_P2;Temp;Humidity;BMP_temperature;BMP_pressure;BME280_temperature;BME280_humidity;BME280_pressure;Samples;Min_cycle;Max_cycle;Signal;HPM_P1;HPM_P2
2022/01/31 00:02:07;;;;;;;13.88;9.85;;;;;;;0.72;78.70;98673.45;1770871;80;21267;-65
2022/01/31 00:05:14;;;;;;;16.48;9.63;;;;;;;0.81;78.61;98668.47;1770966;80;21777;-65
2022/01/31 00:08:24;;;;;;;16.35;9.80;;;;;;;0.93;78.45;98657.80;1770786;80;21197;-65
2022/01/31 00:11:26;;;;;;;13.05;9.23;;;;;;;1.03;78.19;98654.48;1771547;80;21316;-65
2022/01/31 00:14:37;;;;;;;14.43;8.88;;;;;;;1.12;77.92;98652.20;1769996;80;21356;-64
2022/01/31 00:17:40;;;;;;;15.05;9.43;;;;;;;1.19;77.62;98647.85;1770584;81;21268;-64
2022/01/31 00:20:45;;;;;;;12.37;9.28;;;;;;;1.23;77.34;98649.24;1770872;80;21220;-65
2022/01/31 00:23:52;;;;;;;14.80;9.25;;;;;;;1.28;77.11;98647.41;1770752;79;21209;-65
2022/01/31 00:26:58;;;;;;;12.35;8.80;;;;;;;1.30;76.86;98640.84;1770807;80;21235;-65
2022/01/31 00:30:05;;;;;;;13.20;8.10;;;;;;;1.35;76.73;98633.12;1746563;80;21385;-65
2022/01/31 00:33:11;;;;;;;12.82;8.70;;;;;;;1.41;76.64;98624.91;1770581;80;21212;-65
2022/01/31 00:36:18;;;;;;;12.05;8.58;;;;;;;1.46;76.53;98617.16;1770718;81;21265;-65
2022/01/31 00:39:26;;;;;;;11.75;7.67;;;;;;;1.51;76.45;98618.38;1770787;80;21213;-65
2022/01/31 00:42:32;;;;;;;13.30;8.43;;;;;;;1.56;76.40;98619.23;1770823;81;21260;-65
2022/01/31 00:45:46;;;;;;;12.28;8.23;;;;;;;1.59;76.23;98616.73;1770791;80;21220;-65
2022/01/31 00:48:50;;;;;;;14.68;8.80;;;;;;;1.60;76.12;98607.63;1783155;80;21554;-65
2022/01/31 00:51:56;;;;;;;11.95;8.10;;;;;;;1.60;76.83;98605.79;1770835;81;21322;-65
2022/01/31 00:55:05;;;;;;;10.68;7.92;;;;;;;1.63;77.07;98611.34;1770952;80;21243;-64
2022/01/31 00:58:12;;;;;;;12.75;8.43;;;;;;;1.66;77.26;98613.71;1771117;80;21268;-64
2022/01/31 01:01:18;;;;;;;10.48;7.75;;;;;;;1.66;77.37;98602.92;1770785;80;21185;-64
2022/01/31 01:04:25;;;;;;;11.08;7.62;;;;;;;1.70;77.57;98607.00;1769713;80;21789;-64
2022/01/31 01:07:31;;;;;;;12.28;8.43;;;;;;;1.75;77.61;98593.84;1770143;80;21379;-65
2022/01/31 01:10:38;;;;;;;12.30;8.20;;;;;;;1.73;77.76;98595.36;1770854;80;21571;-65
2022/01/31 01:13:45;;;;;;;14.33;8.68;;;;;;;1.73;78.09;98601.28;1770715;80;21229;-64
2022/01/31 01:16:52;;;;;;;12.43;8.05;;;;;;;1.70;78.47;98593.52;1770734;80;21319;-65
2022/01/31 01:19:58;;;;;;;11.60;7.95;;;;;;;1.68;78.98;98589.64;1770785;80;21243;-65
2022/01/31 01:23:05;;;;;;;11.55;7.37;;;;;;;1.67;79.38;98591.13;1771080;80;21367;-65
2022/01/31 01:26:11;;;;;;;10.38;7.22;;;;;;;1.62;79.76;98584.05;1770949;80;21379;-66
2022/01/31 01:29:20;;;;;;;9.90;7.30;;;;;;;1.55;80.24;98577.94;1771571;80;21248;-63
2022/01/31 01:32:32;;;;;;;11.33;7.87;;;;;;;1.53;80.74;98572.39;1771450;80;21229;-64
2022/01/31 01:35:38;;;;;;;12.40;8.40;;;;;;;1.53;81.13;98577.28;1770434;80;21773;-65
2022/01/31 01:38:43;;;;;;;13.45;8.35;;;;;;;1.54;81.49;98574.06;1783668;80;21197;-64
2022/01/31 01:41:48;;;;;;;11.05;8.25;;;;;;;1.57;81.70;98568.87;1771254;80;21300;-64
2022/01/31 01:44:58;;;;;;;14.13;9.15;;;;;;;1.58;81.84;98564.66;1770979;81;21383;-65
2022/01/31 01:48:08;;;;;;;14.18;8.78;;;;;;;1.55;81.92;98561.77;1771457;80;21225;-64
2022/01/31 01:51:16;;;;;;;12.45;9.00;;;;;;;1.54;82.04;98562.78;1762984;80;21308;-64
2022/01/31 01:54:22;;;;;;;14.98;8.65;;;;;;;1.52;82.09;98558.05;1771367;80;21308;-66
2022/01/31 01:57:29;;;;;;;14.03;8.98;;;;;;;1.51;82.26;98555.52;1770586;80;21332;-64
2022/01/31 02:03:53;;;;;;;18.37;9.10;;;;;;;1.55;82.38;98551.51;1758195;80;21259;-65
2022/01/31 02:07:03;;;;;;;14.70;8.83;;;;;;;1.62;82.48;98555.74;1771260;80;21428;-65
2022/01/31 02:10:14;;;;;;;13.68;9.28;;;;;;;1.68;82.51;98547.84;1770952;80;21201;-65
2022/01/31 02:13:38;;;;;;;13.32;8.53;;;;;;;1.75;82.40;98556.09;1765404;81;21355;-64
2022/01/31 02:17:01;;;;;;;16.32;9.90;;;;;;;1.78;82.27;98552.56;1781613;80;21371;-64
2022/01/31 02:20:10;;;;;;;14.07;9.20;;;;;;;1.82;82.18;98549.04;1768176;80;21240;-65
2022/01/31 02:23:18;;;;;;;14.07;8.33;;;;;;;1.86;82.10;98548.53;1771292;80;21247;-64
2022/01/31 02:26:26;;;;;;;13.43;8.50;;;;;;;1.88;81.93;98545.17;1752308;81;21188;-64
2022/01/31 02:29:35;;;;;;;13.28;7.62;;;;;;;1.89;81.73;98541.45;1769158;81;21268;-63
2022/01/31 02:32:42;;;;;;;12.78;7.58;;;;;;;1.91;81.72;98530.50;1771217;80;21208;-64
2022/01/31 02:35:48;;;;;;;10.85;7.08;;;;;;;1.95;81.73;98544.83;1770905;80;21200;-64
2022/01/31 02:38:54;;;;;;;11.63;7.28;;;;;;;2.01;81.69;98536.09;1771000;80;21283;-64
2022/01/31 02:42:02;;;;;;;11.22;7.22;;;;;;;2.04;81.65;98537.11;1770855;80;21213;-64
2022/01/31 02:45:09;;;;;;;10.20;7.03;;;;;;;2.08;81.50;98540.32;1771255;80;21216;-64
2022/01/31 02:48:18;;;;;;;9.38;6.80;;;;;;;2.11;81.41;98538.11;1770873;80;21205;-63
2022/01/31 02:51:27;;;;;;;10.53;7.50;;;;;;;2.14;81.40;98540.99;1770962;80;21181;-64
2022/01/31 02:54:33;;;;;;;11.10;6.62;;;;;;;2.20;81.46;98532.22;1771143;80;21283;-64
2022/01/31 02:57:39;;;;;;;12.23;7.25;;;;;;;2.24;81.38;98529.50;1771500;80;21173;-64
2022/01/31 03:00:46;;;;;;;8.60;6.58;;;;;;;2.25;81.24;98527.98;1770925;81;21244;-63
2022/01/31 03:03:57;;;;;;;10.40;6.43;;;;;;;2.30;81.26;98523.45;1771033;81;21212;-64
2022/01/31 03:07:02;;;;;;;9.08;6.47;;;;;;;2.34;81.14;98520.73;1769546;80;21315;-64
2022/01/31 03:10:09;;;;;;;9.90;5.95;;;;;;;2.34;80.98;98511.30;1770947;80;21216;-64
2022/01/31 03:13:14;;;;;;;7.97;6.00;;;;;;;2.37;81.03;98506.41;1770785;81;21185;-64
2022/01/31 03:16:22;;;;;;;9.65;6.12;;;;;;;2.41;80.99;98513.13;1771384;80;21298;-64
2022/01/31 03:19:40;;;;;;;9.53;6.28;;;;;;;2.46;80.89;98518.87;1761706;81;21216;-64
2022/01/31 03:22:48;;;;;;;8.13;5.90;;;;;;;2.50;80.80;98516.68;1770947;80;21188;-64
2022/01/31 03:25:55;;;;;;;8.15;5.58;;;;;;;2.53;80.66;98517.69;1770938;80;21212;-63
2022/01/31 03:29:02;;;;;;;7.42;5.80;;;;;;;2.53;80.53;98518.54;1771060;80;21852;-64
2022/01/31 03:32:08;;;;;;;8.80;5.97;;;;;;;2.57;80.49;98508.25;1770886;80;21351;-63
2022/01/31 03:35:15;;;;;;;8.93;6.08;;;;;;;2.58;80.52;98518.02;1771184;80;21236;-64
2022/01/31 03:38:21;;;;;;;9.10;5.45;;;;;;;2.58;80.45;98507.22;1771362;80;21382;-62
2022/01/31 03:41:28;;;;;;;8.60;5.47;;;;;;;2.57;80.53;98519.87;1770787;81;21228;-63
2022/01/31 03:44:35;;;;;;;9.55;5.47;;;;;;;2.58;80.69;98513.47;1770920;81;21319;-63
2022/01/31 03:47:44;;;;;;;7.80;5.72;;;;;;;2.59;80.71;98511.59;1770797;81;21204;-63
2022/01/31 03:50:48;;;;;;;8.40;5.58;;;;;;;2.61;80.86;98514.48;1771063;80;21467;-63
2022/01/31 03:53:56;;;;;;;9.45;5.92;;;;;;;2.65;80.88;98517.66;1771023;80;21840;-63
2022/01/31 03:57:02;;;;;;;7.92;5.58;;;;;;;2.66;80.79;98511.26;1761243;80;21189;-63
2022/01/31 04:00:25;;;;;;;7.95;5.58;;;;;;;2.65;80.65;98506.85;1733267;80;21745;-63
2022/01/31 04:03:30;;;;;;;8.65;5.78;;;;;;;2.61;80.68;98509.08;1770994;80;21362;-63
2022/01/31 04:06:35;;;;;;;8.08;5.30;;;;;;;2.61;80.69;98512.27;1770831;81;21347;-63
2022/01/31 04:09:40;;;;;;;8.80;5.03;;;;;;;2.65;80.80;98510.90;1771582;79;21201;-63
2022/01/31 04:12:46;;;;;;;7.72;5.25;;;;;;;2.68;80.74;98508.70;1770880;81;21398;-63
2022/01/31 04:15:51;;;;;;;7.85;5.30;;;;;;;2.67;80.70;98511.58;1770739;80;21173;-62
2022/01/31 04:18:58;;;;;;;7.35;5.12;;;;;;;2.67;80.57;98500.77;1770492;80;21198;-62
2022/01/31 04:22:07;;;;;;;7.87;5.25;;;;;;;2.67;80.51;98504.33;1770511;81;21321;-62
2022/01/31 04:25:27;;;;;;;7.65;5.15;;;;;;;2.67;80.44;98503.48;1770581;80;21354;-62
2022/01/31 04:28:26;;;;;;;7.35;5.03;;;;;;;2.68;80.38;98494.38;1770761;80;21434;-62
2022/01/31 04:31:40;;;;;;;9.25;5.55;;;;;;;2.67;80.33;98498.93;1771411;80;21189;-62
2022/01/31 04:34:41;;;;;;;7.03;4.87;;;;;;;2.70;80.42;98504.48;1770903;80;21208;-63
2022/01/31 04:37:48;;;;;;;7.90;5.33;;;;;;;2.68;80.57;98502.48;1771127;80;21189;-63
2022/01/31 04:40:54;;;;;;;11.63;6.62;;;;;;;2.70;80.63;98506.69;1770981;80;21213;-62
2022/01/31 04:44:05;;;;;;;11.55;6.62;;;;;;;2.72;80.59;98509.21;1770881;81;21371;-62
2022/01/31 04:47:08;;;;;;;11.90;6.83;;;;;;;2.68;80.48;98506.00;1771112;80;21193;-61
2022/01/31 04:50:13;;;;;;;8.95;5.95;;;;;;;2.68;80.58;98506.00;1770831;80;21205;-62
2022/01/31 04:53:19;;;;;;;6.67;5.22;;;;;;;2.71;80.66;98514.29;1770983;80;21177;-62
2022/01/31 04:56:25;;;;;;;11.28;7.25;;;;;;;2.75;80.68;98516.97;1770959;81;21737;-62
2022/01/31 04:59:33;;;;;;;11.75;6.85;;;;;;;2.77;80.72;98511.75;1770883;80;21209;-61
2022/01/31 05:02:39;;;;;;;8.88;5.62;;;;;;;2.81;80.77;98520.33;1770900;80;21213;-61
2022/01/31 05:05:45;;;;;;;8.03;5.70;;;;;;;2.82;80.77;98526.08;1771185;80;21201;-62
2022/01/31 05:08:52;;;;;;;10.95;6.58;;;;;;;2.82;80.85;98520.68;1770312;79;21213;-62
2022/01/31 05:11:57;;;;;;;12.33;7.40;;;;;;;2.83;81.03;98517.80;1771050;80;21237;-61
2022/01/31 05:15:02;;;;;;;9.43;6.58;;;;;;;2.87;81.21;98516.95;1770983;80;21267;-62
2022/01/31 05:18:09;;;;;;;8.68;5.55;;;;;;;2.87;81.32;98517.78;1770958;80;21221;-61
2022/01/31 05:21:14;;;;;;;6.65;4.80;;;;;;;2.90;81.57;98520.66;1771134;80;21165;-62
2022/01/31 05:24:19;;;;;;;7.62;4.90;;;;;;;2.91;81.61;98522.34;1764138;80;21271;-62
2022/01/31 05:27:25;;;;;;;8.35;5.78;;;;;;;2.91;81.77;98519.62;1770705;81;21215;-61
2022/01/31 05:30:30;;;;;;;8.30;5.72;;;;;;;2.91;81.86;98516.93;1770744;81;21251;-62
2022/01/31 05:33:35;;;;;;;10.40;6.80;;;;;;;2.90;81.93;98516.08;1767556;81;21245;-61
2022/01/31 05:36:40;;;;;;;11.80;7.42;;;;;;;2.93;82.07;98521.66;1753858;80;21173;-62
2022/01/31 05:39:46;;;;;;;10.40;6.78;;;;;;;2.95;82.11;98522.31;1743079;81;21347;-61
2022/01/31 05:42:52;;;;;;;10.20;6.72;;;;;;;2.98;82.17;98524.16;1771143;80;21279;-61
2022/01/31 05:45:57;;;;;;;7.85;6.20;;;;;;;3.00;82.17;98526.19;1770933;80;21216;-61
2022/01/31 05:49:03;;;;;;;6.92;5.28;;;;;;;3.02;82.22;98521.47;1763873;80;21243;-61
2022/01/31 05:52:11;;;;;;;6.60;5.03;;;;;;;3.06;82.26;98525.98;1769674;80;21198;-61
2022/01/31 05:55:17;;;;;;;7.65;5.37;;;;;;;3.07;82.18;98531.75;1769768;80;21201;-61
2022/01/31 05:58:23;;;;;;;9.83;7.67;;;;;;;3.08;82.20;98531.57;1769664;81;21193;-62
2022/01/31 06:01:28;;;;;;;10.72;7.60;;;;;;;3.16;82.26;98533.89;1769978;80;21193;-61
2022/01/31 06:04:33;;;;;;;5.90;4.25;;;;;;;3.21;82.17;98524.26;1769526;80;21394;-61
2022/01/31 06:07:42;;;;;;;5.20;3.95;;;;;;;3.29;81.91;98532.34;1769322;81;21331;-61
2022/01/31 06:10:50;;;;;;;6.35;3.80;;;;;;;3.38;81.73;98532.63;1741424;79;21603;-63
2022/01/31 06:13:57;;;;;;;4.75;3.60;;;;;;;3.44;81.56;98534.62;1742605;81;21256;-61
2022/01/31 06:17:03;;;;;;;6.62;3.60;;;;;;;3.48;81.37;98533.27;1755313;81;21303;-61
2022/01/31 06:20:09;;;;;;;5.47;3.87;;;;;;;3.50;81.15;98542.06;1739425;82;21225;-60
2022/01/31 06:23:16;;;;;;;6.42;3.72;;;;;;;3.54;81.16;98547.43;1758126;81;21263;-61
2022/01/31 06:26:29;;;;;;;5.10;4.08;;;;;;;3.61;80.93;98548.92;1751123;81;21749;-61
2022/01/31 06:29:46;;;;;;;8.43;4.92;;;;;;;3.66;80.81;98546.53;1754260;80;21232;-61
2022/01/31 06:32:52;;;;;;;7.22;5.00;;;;;;;3.69;80.47;98538.91;1760975;80;21319;-61
2022/01/31 06:35:59;;;;;;;10.78;6.40;;;;;;;3.67;80.28;98545.00;1763364;80;21280;-61
2022/01/31 06:39:05;;;;;;;7.87;5.00;;;;;;;3.67;80.18;98538.73;1757496;81;21742;-61
2022/01/31 06:42:12;;;;;;;8.88;5.62;;;;;;;3.67;80.09;98538.73;1738709;82;22004;-61
2022/01/31 06:45:21;;;;;;;10.28;6.03;;;;;;;3.70;80.01;98543.30;1737698;81;21205;-61
2022/01/31 06:48:26;;;;;;;8.15;4.95;;;;;;;3.74;79.92;98545.14;1736803;82;21198;-62
2022/01/31 06:51:31;;;;;;;15.00;8.00;;;;;;;3.74;79.63;98547.31;1737020;82;21750;-61
2022/01/31 06:54:36;;;;;;;8.78;5.58;;;;;;;3.71;79.52;98548.20;1769852;80;21770;-61
2022/01/31 06:57:42;;;;;;;7.10;5.03;;;;;;;3.70;79.48;98541.94;1769504;80;21201;-61
2022/01/31 07:00:48;;;;;;;6.97;4.37;;;;;;;3.71;79.48;98550.38;1762792;80;21205;-60
2022/01/31 07:03:55;;;;;;;9.33;4.47;;;;;;;3.75;79.26;98549.52;1744971;80;21736;-61
2022/01/31 07:06:59;;;;;;;4.97;3.67;;;;;;;3.79;79.02;98549.52;1739105;82;21212;-60
2022/01/31 07:10:05;;;;;;;5.72;3.20;;;;;;;3.88;78.83;98548.44;1740861;80;21208;-60
2022/01/31 07:13:24;;;;;;;4.97;3.30;;;;;;;3.95;78.24;98549.39;1767956;81;21263;-60
2022/01/31 07:16:20;;;;;;;3.42;2.20;;;;;;;3.97;77.88;98545.50;1770770;80;21264;-58
2022/01/31 07:19:28;;;;;;;3.42;2.02;;;;;;;4.03;77.33;98554.25;1763810;81;21212;-59
2022/01/31 07:22:38;;;;;;;3.95;2.12;;;;;;;4.03;76.66;98557.45;1767826;80;21252;-60
2022/01/31 07:25:46;;;;;;;6.10;3.85;;;;;;;3.99;76.08;98555.64;1753644;81;21204;-59
2022/01/31 07:28:55;;;;;;;6.55;3.80;;;;;;;3.94;75.60;98547.72;1770338;80;21220;-59
2022/01/31 07:32:01;;;;;;;5.50;2.92;;;;;;;3.88;75.02;98553.34;1770534;80;21205;-60
2022/01/31 07:35:05;;;;;;;3.85;2.33;;;;;;;3.82;74.62;98556.73;1761423;80;21281;-61
2022/01/31 07:38:12;;;;;;;2.95;2.20;;;;;;;3.84;74.50;98552.00;1746795;81;21751;-59
2022/01/31 07:41:17;;;;;;;5.25;2.87;;;;;;;3.92;74.22;98554.66;1758629;81;21319;-59
2022/01/31 07:44:23;;;;;;;3.55;2.37;;;;;;;4.09;73.80;98566.24;1750023;80;21260;-59
2022/01/31 07:47:30;;;;;;;4.08;1.98;;;;;;;4.21;73.16;98560.23;1748138;81;21872;-60
2022/01/31 07:50:37;;;;;;;7.87;4.33;;;;;;;4.34;72.47;98556.38;1755611;80;21366;-59
2022/01/31 07:53:43;;;;;;;3.30;2.15;;;;;;;4.39;71.83;98563.45;1760152;81;21410;-59
2022/01/31 07:56:51;;;;;;;3.05;1.90;;;;;;;4.39;71.34;98563.45;1746332;81;21247;-60
2022/01/31 08:00:00;;;;;;;2.90;1.80;;;;;;;4.29;71.47;98568.30;1753190;81;22092;-61
2022/01/31 08:03:05;;;;;;;3.30;1.82;;;;;;;4.21;71.61;98569.70;1739092;82;21722;-61
2022/01/31 08:06:12;;;;;;;13.45;7.65;;;;;;;4.13;72.04;98570.26;1742791;81;21605;-60
2022/01/31 08:09:18;;;;;;;3.92;2.22;;;;;;;4.03;72.87;98576.41;1748573;80;21232;-59
2022/01/31 08:12:27;;;;;;;3.65;2.17;;;;;;;3.94;73.80;98576.13;1756957;79;21813;-59
2022/01/31 08:15:34;;;;;;;4.22;2.45;;;;;;;3.91;74.46;98573.78;1769634;80;21213;-60
2022/01/31 08:18:41;;;;;;;4.33;2.37;;;;;;;3.94;74.95;98572.92;1768207;80;21217;-60
2022/01/31 08:21:50;;;;;;;3.15;2.00;;;;;;;4.03;75.06;98573.20;1770076;80;21216;-59
2022/01/31 08:24:56;;;;;;;3.42;2.20;;;;;;;4.09;74.91;98582.48;1769832;80;21574;-60
2022/01/31 08:28:06;;;;;;;3.00;1.50;;;;;;;4.11;74.45;98581.77;1769073;81;21750;-60
2022/01/31 08:31:29;;;;;;;4.03;2.05;;;;;;;4.07;73.80;98581.31;1769591;80;21177;-59
2022/01/31 08:38:03;;;;;;;4.33;2.00;;;;;;;4.05;72.90;98600.94;1739129;82;21911;-59
2022/01/31 08:41:11;;;;;;;5.12;2.25;;;;;;;4.12;72.59;98576.17;1746629;81;21355;-59
2022/01/31 08:44:18;;;;;;;4.08;1.98;;;;;;;4.17;71.93;98577.84;1756210;81;21546;-59
2022/01/31 08:47:26;;;;;;;4.80;2.60;;;;;;;4.14;71.64;98578.70;1761671;81;21371;-58
2022/01/31 08:50:34;;;;;;;5.80;3.00;;;;;;;4.11;71.31;98586.69;1769772;80;21710;-59
2022/01/31 08:53:40;;;;;;;3.62;2.50;;;;;;;4.10;71.21;98582.30;1769751;80;21214;-62
2022/01/31 08:56:49;;;;;;;6.37;3.37;;;;;;;4.13;71.02;98586.00;1769087;80;21208;-59
2022/01/31 08:59:57;;;;;;;4.87;2.87;;;;;;;4.18;70.84;98574.13;1768372;79;21710;-60
2022/01/31 09:03:18;;;;;;;7.62;3.47;;;;;;;4.27;70.51;98580.31;1769015;80;22033;-59
2022/01/31 09:06:11;;;;;;;4.60;2.60;;;;;;;4.29;70.10;98579.12;1768856;80;21208;-59
2022/01/31 09:09:21;;;;;;;5.42;2.40;;;;;;;4.40;69.96;98590.89;1744024;81;21251;-60
2022/01/31 09:12:31;;;;;;;4.28;2.72;;;;;;;4.44;69.34;98585.43;1738513;82;21197;-60
2022/01/31 09:15:35;;;;;;;4.30;2.00;;;;;;;4.46;69.09;98585.25;1739080;82;21624;-61
2022/01/31 09:18:40;;;;;;;3.55;2.15;;;;;;;4.48;68.60;98594.05;1738273;82;21189;-60
2022/01/31 09:21:47;;;;;;;6.58;3.58;;;;;;;4.53;68.42;98578.91;1758751;81;21691;-61
2022/01/31 09:24:54;;;;;;;3.67;2.27;;;;;;;4.64;68.35;98574.95;1760158;80;21217;-60
2022/01/31 09:27:58;;;;;;;3.70;2.10;;;;;;;4.77;67.87;98574.33;1759762;80;21185;-61
2022/01/31 09:31:03;;;;;;;4.65;2.70;;;;;;;4.80;67.40;98587.50;1744252;80;21748;-61
2022/01/31 09:34:10;;;;;;;6.97;3.12;;;;;;;4.75;67.17;98586.70;1747044;81;21232;-62
2022/01/31 09:37:15;;;;;;;5.92;3.00;;;;;;;4.69;66.96;98588.80;1769095;80;21197;-65
2022/01/31 09:40:22;;;;;;;6.60;3.40;;;;;;;4.52;66.96;98585.37;1769657;80;21193;-62
2022/01/31 09:43:56;;;;;;;9.03;3.92;;;;;;;4.44;67.09;98576.45;1771101;80;21185;-63
2022/01/31 09:46:47;;;;;;;10.25;4.92;;;;;;;4.37;67.23;98578.22;1751077;80;21273;-62
2022/01/31 09:49:49;;;;;;;5.10;2.98;;;;;;;4.41;67.29;98581.73;1762948;81;21798;-63
2022/01/31 09:52:54;;;;;;;5.47;2.60;;;;;;;4.44;67.05;98584.08;1751510;81;21216;-62
2022/01/31 09:56:02;;;;;;;6.45;3.47;;;;;;;4.50;66.97;98594.17;1745232;80;21224;-62
2022/01/31 09:59:07;;;;;;;4.42;2.80;;;;;;;4.60;66.92;98597.50;1768702;80;21209;-63
2022/01/31 10:02:20;;;;;;;5.58;3.00;;;;;;;4.68;66.36;98598.47;1768942;80;21207;-63
2022/01/31 10:05:37;;;;;;;5.30;3.27;;;;;;;4.59;65.95;98608.02;1769889;80;21271;-63
2022/01/31 10:08:42;;;;;;;6.55;3.40;;;;;;;4.50;65.97;98609.08;1740418;80;21178;-64
2022/01/31 10:11:56;;;;;;;5.78;3.30;;;;;;;4.45;66.08;98603.38;1739507;82;21640;-68
2022/01/31 10:18:24;;;;;;;5.22;3.12;;;;;;;4.20;66.18;98603.73;1742212;81;21251;-62
2022/01/31 10:21:30;;;;;;;4.37;2.87;;;;;;;4.11;66.82;98606.98;1735180;81;21180;-63
2022/01/31 10:24:37;;;;;;;5.05;2.83;;;;;;;4.14;67.20;98614.75;1744910;81;21239;-63
2022/01/31 10:27:41;;;;;;;3.25;2.50;;;;;;;4.20;67.65;98616.73;1758485;81;21713;-63
2022/01/31 10:30:47;;;;;;;5.50;3.08;;;;;;;4.29;67.54;98614.33;1758134;81;21721;-63
2022/01/31 10:34:23;;;;;;;5.17;2.77;;;;;;;4.42;67.69;98627.27;1758838;81;21223;-63
2022/01/31 10:37:30;;;;;;;5.78;2.77;;;;;;;4.47;67.54;98635.71;1750646;81;21811;-64
2022/01/31 10:44:41;;;;;;;5.22;3.05;;;;;;;4.50;67.42;98632.64;1758240;81;21215;-64
2022/01/31 10:57:42;;;;;;;4.45;3.12;;;;;;;4.24;66.68;98639.75;1766198;81;21191;-64
2022/01/31 11:00:48;;;;;;;6.05;3.20;;;;;;;4.16;66.61;98635.73;1766413;81;21208;-65
2022/01/31 11:03:54;;;;;;;7.90;4.40;;;;;;;4.10;66.86;98654.05;1759577;81;21274;-63
2022/01/31 11:07:10;;;;;;;5.50;3.40;;;;;;;4.05;67.51;98652.87;1760204;81;21280;-65
2022/01/31 11:10:19;;;;;;;6.97;3.80;;;;;;;3.97;68.02;98655.12;1715781;82;21890;-65
2022/01/31 11:13:35;;;;;;;8.13;4.70;;;;;;;3.83;68.70;98655.86;1749385;81;21795;-66
2022/01/31 11:16:48;;;;;;;6.22;3.50;;;;;;;3.75;69.52;98660.45;1758847;78;21189;-63
2022/01/31 11:20:00;;;;;;;11.38;6.15;;;;;;;3.70;70.38;98658.27;1769805;81;21749;-66
2022/01/31 11:23:09;;;;;;;5.72;4.30;;;;;;;3.75;70.97;98659.95;1769852;81;21746;-65
2022/01/31 11:26:17;;;;;;;6.65;3.87;;;;;;;3.83;71.06;98659.06;1770784;80;21204;-65
2022/01/31 11:29:23;;;;;;;7.67;4.87;;;;;;;3.95;71.27;98673.89;1765522;80;21836;-66
2022/01/31 11:32:29;;;;;;;6.12;4.40;;;;;;;4.05;70.88;98661.84;1751803;81;21224;-63
2022/01/31 11:35:34;;;;;;;8.10;5.40;;;;;;;4.01;70.69;98669.15;1739044;82;21303;-65
2022/01/31 11:38:41;;;;;;;6.55;4.12;;;;;;;3.98;70.38;98682.51;1756839;81;21257;-65
2022/01/31 11:41:55;;;;;;;5.60;4.10;;;;;;;3.96;70.10;98679.16;1766045;81;21186;-64
2022/01/31 11:45:06;;;;;;;8.38;4.65;;;;;;;4.00;70.29;98677.77;1731167;81;21196;-61
2022/01/31 11:48:18;;;;;;;6.33;4.37;;;;;;;4.04;70.93;98679.09;1765240;81;21820;-64
2022/01/31 11:51:26;;;;;;;9.85;4.58;;;;;;;3.98;69.64;98673.03;1767067;81;21202;-64
2022/01/31 11:54:32;;;;;;;5.85;4.03;;;;;;;3.83;69.30;98662.63;1738732;82;21597;-64
2022/01/31 11:57:41;;;;;;;8.65;5.87;;;;;;;3.71;69.43;98673.48;1738681;82;21717;-63
2022/01/31 12:00:50;;;;;;;19.25;9.55;;;;;;;3.55;69.90;98685.70;1751802;81;21212;-65
2022/01/31 12:04:18;;;;;;;22.82;9.53;;;;;;;3.39;70.78;98688.47;1760385;81;21555;-66
2022/01/31 12:07:57;;;;;;;20.37;13.15;;;;;;;3.31;71.71;98696.59;1769589;81;21268;-63
2022/01/31 12:11:18;;;;;;;9.33;4.80;;;;;;;3.36;72.41;98702.33;1746430;80;21184;-65
2022/01/31 12:14:48;;;;;;;12.80;6.22;;;;;;;3.49;72.40;98693.69;1737431;82;21786;-64
2022/01/31 12:18:22;;;;;;;13.08;7.00;;;;;;;3.61;71.80;98689.09;1738933;79;21201;-66
2022/01/31 12:25:02;;;;;;;9.75;5.17;;;;;;;4.12;70.16;98699.89;1771010;80;21193;-66
2022/01/31 12:28:31;;;;;;;10.43;6.05;;;;;;;4.18;68.71;98679.73;1771877;80;21205;-63
2022/01/31 12:31:43;;;;;;;7.90;3.72;;;;;;;4.09;68.54;98703.77;1767389;81;21766;-65
2022/01/31 12:35:07;;;;;;;10.85;6.30;;;;;;;3.92;68.63;98702.16;1760327;80;21288;-64
2022/01/31 12:38:22;;;;;;;7.47;4.60;;;;;;;3.78;69.13;98699.33;1768017;80;22185;-66
2022/01/31 12:41:41;;;;;;;7.37;4.62;;;;;;;3.71;69.63;98710.53;1741797;80;21212;-65
2022/01/31 12:44:52;;;;;;;8.05;5.20;;;;;;;3.62;69.97;98711.55;1726769;80;21193;-65
2022/01/31 12:48:24;;;;;;;10.35;5.45;;;;;;;3.53;70.47;98721.56;1694514;83;21717;-63
2022/01/31 12:51:38;;;;;;;7.60;4.12;;;;;;;3.51;70.82;98723.59;1671513;85;21274;-63
2022/01/31 12:54:52;;;;;;;9.78;5.53;;;;;;;3.46;71.17;98726.45;1662664;85;21211;-64
2022/01/31 12:57:58;;;;;;;12.45;5.87;;;;;;;3.37;71.45;98728.34;1675092;85;21294;-63
2022/01/31 13:01:04;;;;;;;10.13;5.50;;;;;;;3.34;71.53;98741.36;1689737;85;21191;-63
2022/01/31 13:04:19;;;;;;;8.93;5.60;;;;;;;3.21;71.75;98743.23;1677631;85;21812;-64
2022/01/31 13:07:25;;;;;;;8.95;5.72;;;;;;;3.11;72.24;98753.35;1664414;85;21195;-63
2022/01/31 13:10:31;;;;;;;6.78;4.35;;;;;;;3.01;72.75;98758.10;1677002;84;21615;-66
2022/01/31 13:13:43;;;;;;;7.83;4.60;;;;;;;2.95;73.12;98762.80;1663049;85;21759;-64
2022/01/31 13:17:07;;;;;;;7.80;4.10;;;;;;;2.91;73.29;98758.26;1668347;85;21183;-65
2022/01/31 13:20:14;;;;;;;12.90;8.00;;;;;;;2.85;73.35;98758.91;1662232;85;21229;-65
2022/01/31 13:23:22;;;;;;;15.93;7.67;;;;;;;2.79;73.54;98764.16;1661931;86;21190;-65
2022/01/31 13:26:27;;;;;;;20.70;9.70;;;;;;;2.79;73.88;98764.98;1666530;85;21199;-67
2022/01/31 13:29:49;;;;;;;32.42;15.05;;;;;;;2.78;73.57;98759.75;1676255;84;21227;-64
2022/01/31 13:32:56;;;;;;;15.28;8.95;;;;;;;2.73;73.48;98776.45;1665021;85;21819;-64
2022/01/31 13:36:09;;;;;;;9.15;5.78;;;;;;;2.67;73.57;98778.48;1673475;84;21204;-62
2022/01/31 13:39:26;;;;;;;8.55;4.70;;;;;;;2.69;73.86;98778.31;1678435;85;21278;-65
2022/01/31 13:42:41;;;;;;;10.70;8.03;;;;;;;2.70;73.98;98780.84;1684050;85;21163;-64
2022/01/31 13:46:23;;;;;;;8.28;5.17;;;;;;;2.74;73.99;98790.81;1689900;83;21309;-65
2022/01/31 13:49:29;;;;;;;15.78;8.70;;;;;;;2.75;73.72;98793.84;1652130;87;21240;-65
2022/01/31 13:52:33;;;;;;;18.57;8.83;;;;;;;2.70;73.33;98796.20;1648254;87;21291;-61
2022/01/31 13:55:36;;;;;;;16.90;8.70;;;;;;;2.66;73.29;98801.60;1649666;87;21239;-65
2022/01/31 13:58:44;;;;;;;19.45;9.33;;;;;;;2.65;73.12;98805.29;1645271;87;21268;-63
2022/01/31 14:01:50;;;;;;;13.58;8.25;;;;;;;2.64;72.95;98810.37;1625829;88;21219;-65
2022/01/31 14:04:56;;;;;;;11.93;6.12;;;;;;;2.62;72.81;98813.23;1642289;87;21797;-66
2022/01/31 14:08:16;;;;;;;10.70;6.45;;;;;;;2.61;73.00;98825.05;1631225;87;21761;-65
2022/01/31 14:11:26;;;;;;;11.48;6.83;;;;;;;2.64;73.26;98830.62;1643962;87;21231;-66
2022/01/31 14:14:31;;;;;;;19.55;9.78;;;;;;;2.58;73.56;98830.79;1625157;88;21247;-66
2022/01/31 14:17:38;;;;;;;15.98;9.03;;;;;;;2.53;73.79;98829.08;1625047;88;21591;-65
2022/01/31 14:20:45;;;;;;;13.05;7.67;;;;;;;2.55;74.07;98838.36;1627626;87;21279;-65
2022/01/31 14:23:52;;;;;;;9.20;5.65;;;;;;;2.53;74.23;98836.32;1625556;88;21295;-66
2022/01/31 14:27:02;;;;;;;12.25;7.00;;;;;;;2.51;74.32;98849.13;1624508;88;21337;-65
2022/01/31 14:30:07;;;;;;;11.35;6.42;;;;;;;2.49;74.30;98856.58;1630722;87;21236;-66
2022/01/31 14:33:13;;;;;;;10.63;6.10;;;;;;;2.46;74.24;98859.57;1642051;87;21813;-68
2022/01/31 14:36:23;;;;;;;12.95;6.22;;;;;;;2.41;74.04;98860.06;1625302;88;21990;-69
2022/01/31 14:39:42;;;;;;;11.88;6.60;;;;;;;2.40;74.01;98869.67;1626019;87;21222;-64
2022/01/31 14:42:55;;;;;;;11.03;6.33;;;;;;;2.39;73.88;98863.94;1643010;87;21610;-65
2022/01/31 14:49:32;;;;;;;13.38;6.22;;;;;;;2.41;73.67;98868.16;1652128;85;21255;-65
2022/01/31 14:52:40;;;;;;;18.15;8.70;;;;;;;2.41;73.44;98879.48;1653615;86;21223;-66
2022/01/31 14:55:51;;;;;;;18.32;10.38;;;;;;;2.39;73.23;98878.80;1653945;85;21251;-66
2022/01/31 14:58:57;;;;;;;17.52;8.48;;;;;;;2.39;73.21;98885.54;1648604;86;21767;-65
2022/01/31 15:02:02;;;;;;;13.65;6.97;;;;;;;2.40;73.12;98888.58;1648127;87;21772;-66
2022/01/31 15:05:14;;;;;;;13.65;5.90;;;;;;;2.41;73.07;98899.73;1648709;86;21250;-66
2022/01/31 15:08:20;;;;;;;18.15;7.72;;;;;;;2.40;72.68;98908.82;1648451;87;21218;-62
2022/01/31 15:11:25;;;;;;;15.18;6.47;;;;;;;2.37;72.71;98915.41;1648532;87;21275;-65
2022/01/31 15:14:31;;;;;;;14.43;6.40;;;;;;;2.41;72.75;98921.34;1649121;87;21247;-65
2022/01/31 15:17:38;;;;;;;11.15;5.65;;;;;;;2.42;72.68;98927.06;1648616;86;21671;-66
2022/01/31 15:20:45;;;;;;;14.90;5.72;;;;;;;2.43;72.55;98931.45;1648856;87;21255;-65
2022/01/31 15:23:53;;;;;;;13.18;6.00;;;;;;;2.40;72.34;98928.58;1646561;87;21793;-66
2022/01/31 15:26:58;;;;;;;11.97;6.30;;;;;;;2.39;72.24;98939.54;1647945;87;21282;-65